Detall de PIREP

Printer-friendly versionPDF version

[2015/03/01 10:00:00]
Flight IATA:CT1004
Pilot Number:012
Company ICAO:CAT
Aircraft Type:BE20/A
PAX:6
Departing Airport: LICJ
Destination Airport: LEBL
Alternate Airport:LEPA
Online: VATSIM
Route:KAPIL/N0230F280 UM871 ETOIL UM739 BALEN/N0276F270 UM601 VERSO
Flight Level:F280
No Slew and time accel
No pause
Crash detect
Detect pilot in Cockpit between each 30 and 45 minutes
10:00 Zero fuel Weight: 9506 Lbs, Fuel Weight: 1847 Lbs
10:00 VATSIM:LICJ 010920Z 20004KT 160V250 9999 FEW025 14/09 Q1021
10:00 VATSIM:LEBL 010930Z 31004KT 210V360 9999 FEW033 12/06 Q1021 NOSIG
10:01 MWC 2015 BARCELONA CHARTER
10:01 Parking Brakes off
10:04 Take-off
10:04 Take off Weight: 11338 Lbs
10:04 Wind: 265º @ 005 Knots Heading: 248º
10:04 POS N38º 10´ 40´´ E013º 05´ 47´´
10:04 Gear Up: 132 Knots
10:04 Flaps:1 at 132 Knots
10:04 Flaps:0 at 131 Knots
10:19 Wind:025º@021 Knots Heading: 288º Ground Speed: 215 Knots Altitude 19858 ft
10:25 TOC
10:25 Fuel Weight: 1582 Lb
10:34 Wind:017º@092 Knots Heading: 310º Ground Speed: 236 Knots Altitude 28221 ft
10:49 Wind:007º@091 Knots Heading: 309º Ground Speed: 226 Knots Altitude 28218 ft
11:04 Wind:002º@080 Knots Heading: 313º Ground Speed: 215 Knots Altitude 28244 ft
11:19 Wind:359º@075 Knots Heading: 292º Ground Speed: 239 Knots Altitude 28238 ft
11:34 Wind:347º@067 Knots Heading: 325º Ground Speed: 200 Knots Altitude 28238 ft
11:49 Wind:340º@063 Knots Heading: 322º Ground Speed: 202 Knots Altitude 28225 ft
11:57 TOD
11:57 Fuel Weight: 764 Lb
12:04 Wind:346º@062 Knots Heading: 290º Ground Speed: 235 Knots Altitude 27217 ft
12:19 Wind:328º@070 Knots Heading: 283º Ground Speed: 223 Knots Altitude 27211 ft
12:34 Wind:302º@021 Knots Heading: 281º Ground Speed: 204 Knots Altitude 5367 ft
12:36 Flaps:1 at 181 Knots
12:37 Gear Down: 142 Knots
12:37 Flaps:2 at 138 Knots
12:39 TouchDown:Rate -558 ft/min Speed: 104 Knots
12:39 VATSIM:LEBL 011200Z 21006KT 190V250 9999 FEW035 15/11 Q1020 NOSIG
12:39 Land
12:39 Wind:219º@007 Knots
12:39 Heading: 155º
12:39 Flight Duration: 02:35
12:39 Landing Weight: 9900 Lbs
12:39 POS N41º 18´ 00´´ E002º 05´ 24´´
12:39 Parking brakes on
12:39 Block to Block Duration: 02:39
12:39 Final Fuel: 394 Lbls
12:39 Spent Fuel: 1452 Lbls
12:39 Flight Length: 559 NM
12:39 TOD Land Length: 164 NM

Exportar CSV

Powered by Drupal - Modified by Danger4k